*** The Vicarage Weather Feed ***

Nearby METAR Reports


 

CYOO - Oshawa, Municipal Airport, Ontario, Canada
Distance from station: NW 3.2km
Updated: 06/12/2019 15:00
Clear
Clear
 Wind from NNW
Wind: NNW 19 km/h, Gust: 28 km/h
Temperature: -2°C
Wind Chill: -8°C
Dew Point: -5°C
Humidity: 80%
Barometer: 1016.9 hPa
Clouds: Clear
Visibility: 14 km
2019/12/06 20:00 CYOO 062000Z AUTO 34010G15KT 9SM CLR M02/M05 A3003 RMK SLP179
CYKZ - Toronto, Buttonville, Municipal Airport, Ontario, Canada
Distance from station: W 39.75km
Updated: 03/01/2019 04:00
NOT Current
Partly cloudy
Partly cloudy
 Wind from WSW
Wind: WSW 7 km/h
Temperature: -3°C
Wind Chill: -6°C
Dew Point: -5°C
Humidity: 86%
Barometer: 1010.8 hPa
Clouds: Partly cloudy
Visibility: 24 km
Cloud details: Partly cloudy 1219 m
2019/01/03 09:00 CYKZ 030900Z 25004KT 15SM SCT040 M03/M05 A2985 RMK SC3 LAST STFD OBS FAREWELL SLP118
 
CXTO - Toronto City, Buttonville, Ontario, Canada
Distance from station: WSW 49km
Updated: 06/12/2019 15:00

 
Temperature: 0°C
Dew Point: -5°C
Humidity: 69%
2019/12/06 20:00 CXTO 062000Z AUTO M00/M05 RMK AO1 SOG 08 3027 SLP186 T10011054
CYTZ - Toronto City, Island Airport, Ontario, Canada
Distance from station: SW 51.7km
Updated: 06/12/2019 15:00
Clear
Clear
 Wind from NW
Wind: NW 22 km/h, Gust: 35 km/h
Temperature: 1°C
Wind Chill: -4°C
Dew Point: -5°C
Humidity: 65%
Barometer: 1017.9 hPa
Clouds: Clear
Visibility: 14 km
2019/12/06 20:00 CYTZ 062000Z AUTO 32012G19KT 290V350 9SM CLR 01/M05 A3006 RMK SLP184
 
CYPQ - Toronto, Peterborough Airport, Ontario, Canada
Distance from station: NE 54km
Updated: 06/12/2019 15:00
Few Clouds
Few Clouds
 Wind from NW
Wind: NW 9 km/h
Temperature: -3°C
Wind Chill: -7°C
Dew Point: -6°C
Humidity: 80%
Barometer: 1016.3 hPa
Clouds: Few Clouds
Visibility: 14 km
Cloud details: Few Clouds 549 m
2019/12/06 20:00 CYPQ 062000Z AUTO 31005KT 9SM FEW018 M03/M06 A3001 RMK SLP173
CWNC - Cobourg, (mars), Ontario, Canada
Distance from station: E 57km
Updated: 06/12/2019 15:00

 Wind from NNW
Wind: NNW 9 km/h
Temperature: -1°C
Wind Chill: -4°C
Dew Point: -5°C
Humidity: 75%
2019/12/06 20:00 CWNC 062000Z AUTO 33005KT M01/M05 RMK AO1 SOG 04 3025 SLP170 T10091049
 
CYYZ - Toronto, Lester Pearson Airport, Ontario, Canada
Distance from station: W 65.5km
Updated: 06/12/2019 15:00
Few Clouds
Few Clouds
 Wind from NNW
Wind: NNW 13 km/h
Temperature: 0°C
Wind Chill: -4°C
Dew Point: -5°C
Humidity: 69%
Barometer: 1017.6 hPa
Clouds: Few Clouds
Visibility: 24 km
Cloud details: Few Clouds 914 m
2019/12/06 20:00 CYYZ 062000Z 33007KT 310V020 15SM FEW030 M00/M05 A3005 RMK SC1 SLP185
CWGL - Lagoon City, Ontario, Canada
Distance from station: NNW 74km
Updated: 06/12/2019 15:00

 Wind from NW
Wind: NW 20 km/h
Temperature: -3°C
Wind Chill: -9°C
Dew Point: -7°C
Humidity: 74%
2019/12/06 20:00 CWGL 062000Z AUTO 31011KT M03/M07 RMK AO1 SLP161 T10301074 53019
 
CWWZ - Port Weller Airport, Ontario, Canada
Distance from station: SSW 77km
Updated: 06/12/2019 15:00

 Wind from NW
Wind: NW 28 km/h
Temperature: 2°C
Wind Chill: -3°C
Dew Point: -1°C
Humidity: 81%
2019/12/06 20:00 CWWZ 062000Z AUTO 32015KT 02/M01 RMK AO1 PK WND 32019/1907 SLP185 T00241010 53035
CYSN - St.Catharines Niagara Airport, Ontario, Canada
Distance from station: SSW 81km
Updated: 06/12/2019 15:00
Partly cloudy
Partly cloudy
 Wind from NW
Wind: NW 22 km/h
Temperature: 1°C
Wind Chill: -4°C
Dew Point: -3°C
Humidity: 75%
Barometer: 1017.6 hPa
Clouds: Partly cloudy
Visibility: 24 km
Cloud details: Partly cloudy 792 m
2019/12/06 20:00 CYSN 062000Z 32012KT 15SM SCT026 01/M03 A3005 RMK SC4 SLP183
This data is offered only as a general guide to local weather conditions. It should not be relied upon in lieu of officially disseminated weather information for determining possible risk to persons or property. This site, including all information contained therein, is made available as is without warranties of any kind, either express or implied. The Vicarage Weather Feed© includes links to other sites for user convenience only. The content of any linked third-party site is not controlled by The Vicarage Weather Feed©. Access to any third-party website through The Vicarage Weather Feed©, regardless of whether or not the third-party site is a linked site, is entirely at the users own risk. Externally sourced content or material is excluded from The Vicarage Weather Feed© copyright and is the copyright and property of the respective provider. Skywarn® and the Skywarn® logo are registered trademarks of the National Oceanic and Atmospheric Administration, used with permission.